Terminal Aerodrome Forecast
Issued by NWS Norman, OK

Home | Current Version | Previous Version | Text Only | Print | Product List | Glossary On
Versions: 1 2 3 4 5 6 7 8 9 10 11 12 13 14 15 16 17 18 19 20 21 22 23 24 25 26
000
FTUS44 KOUN 201126
TAFOKC
TAF
KOKC 201126Z 2012/2112 17009KT P6SM SCT030 OVC100
     FM201600 20013KT P6SM BKN250
     FM202100 20010KT P6SM SCT250
     FM210500 33008KT P6SM SKC=

USA.gov is the U.S. government's official web portal to all federal, state and local government web resources and services.